• Join FlightAware (Why Join?)
  • Login
  • US Flag 
05:42AM EDT


 

Airport Tracker/Info


-or-


 

Live Flight TrackerFlight Track Log ✈ N400PU ✈ 27-May-2014 ✈ KLAF - KHUT

Flight Track Log - Related Links

Times and Time Zones

All times are in EDT time to prevent confusion due to time zone crossing. See the N400PU flight status page for this flight to view local times or setup timezone preferences in your user account.

Time Position Orientation Groundspeed Altitude Reporting Facility
EDT Latitude Longitude Course Direction KTS MPH feet Rate Location/Type
06:57AM 40.4003 -87.0978 255° West 229 264 6,100  Level Chicago Center
06:58AM 40.3739 -87.2081 253° West 262 302 9,300 2,700 Climbing Chicago Center
06:59AM 40.2552 -87.6959 252° West  Level FlightAware Approximate
06:59AM 40.3508 -87.3064 253° West 279 321 11,700  Level Chicago Center
07:00AM 40.2374 -87.8248 261° West  Level FlightAware Approximate
07:00AM 40.3292 -87.4061 254° West 282 325 14,300  Level Chicago Center
07:01AM 40.2221 -87.9545 261° West  Level FlightAware Approximate
07:01AM 40.3081 -87.4964 253° West 282 325 16,800  Level Chicago Center
07:02AM 40.2028 -88.0832 258° West  Level FlightAware Approximate
07:02AM 40.2867 -87.5939 254° West 281 323 18,400  Level Chicago Center
07:03AM 40.1819 -88.2072 255° West  Level FlightAware Approximate
07:03AM 40.2700 -87.7028 259° West 298 343 19,900  Level Chicago Center
07:04AM 40.2506 -87.8169 257° West 317 365 21,300 1,380 Climbing Chicago Center
07:05AM 40.2303 -87.9331 257° West 324 373 22,800 1,380 Climbing Chicago Center
07:06AM 40.2100 -88.0517 257° West 329 379 24,200 1,380 Climbing Chicago Center
07:07AM 40.1886 -88.1789 258° West 336 387 25,700 1,440 Climbing Chicago Center
07:08AM 40.1692 -88.2992 258° West 336 387 27,200 1,200 Climbing Chicago Center
07:10AM 40.1469 -88.4175 256° West 336 387 28,200 840 Climbing Chicago Center
07:11AM 40.1267 -88.5383 258° West 337 388 29,000 540 Climbing Chicago Center
07:12AM 40.1056 -88.6650 258° West 351 404 29,400 420 Climbing Chicago Center
07:13AM 40.0811 -88.7958 256° West 366 421 29,900 420 Climbing Chicago Center
07:14AM 40.0569 -88.9303 257° West 378 435 30,300 420 Climbing Chicago Center
07:15AM 40.0322 -89.0667 257° West 383 441 30,800 480 Climbing Chicago Center
07:16AM 40.0017 -89.2325 257° West 388 447 31,300 480 Climbing Chicago Center
07:17AM 39.9758 -89.3744 257° West 395 455 31,800 540 Climbing Chicago Center
07:18AM 39.9489 -89.5172 256° West 400 460 32,500 720 Climbing Chicago Center
07:19AM 39.9219 -89.6647 257° West 412 474 33,300 840 Climbing Chicago Center
07:20AM 39.8953 -89.8081 256° West 409 471 34,300 900 Climbing Chicago Center
07:21AM 39.8692 -89.9483 256° West 401 461 35,200 840 Climbing Chicago Center
07:22AM 39.8419 -90.0881 256° West 398 458 36,100 900 Climbing Chicago Center
07:23AM 39.8164 -90.2272 257° West 395 455 37,100 900 Climbing Chicago Center
07:24AM 39.7908 -90.3617 256° West 386 444 38,000 420 Climbing Chicago Center
07:25AM 39.7625 -90.4975 255° West 388 447 38,000  Level Chicago Center
07:26AM 39.7319 -90.6586 256° West 410 472 38,000  Level Chicago Center
07:27AM 39.7047 -90.8017 256° West 410 472 38,000  Level Chicago Center
07:28AM 39.6717 -90.9711 256° West 406 467 38,000  Level Kansas City Center
07:29AM 39.6372 -91.1414 255° West 406 467 38,000  Level Kansas City Center
07:30AM 39.6089 -91.2833 256° West 406 467 38,000  Level Kansas City Center
07:31AM 39.5797 -91.4267 255° West 407 468 38,000  Level Kansas City Center
07:32AM 39.5503 -91.5692 255° West 407 468 38,000  Level Kansas City Center
07:33AM 39.5214 -91.7125 255° West 409 471 38,000  Level Kansas City Center
07:34AM 39.4914 -91.8569 255° West 411 473 38,000  Level Kansas City Center
07:35AM 39.4617 -92.0000 255° West 414 476 38,000  Level Kansas City Center
07:36AM 39.4325 -92.1419 255° West 413 475 38,000  Level Kansas City Center
07:37AM 39.4011 -92.2867 254° West 414 476 38,000  Level Kansas City Center
07:38AM 39.3708 -92.4303 255° West 414 476 38,000  Level Kansas City Center
07:39AM 39.3406 -92.5717 255° West 414 476 38,000  Level Kansas City Center
07:40AM 39.3025 -92.7417 254° West 414 476 38,000  Level Kansas City Center
07:41AM 39.2731 -92.8828 255° West 413 475 38,000  Level Kansas City Center
07:42AM 39.2414 -93.0253 254° West 413 475 38,000  Level Kansas City Center
07:43AM 39.2106 -93.1669 254° West 413 475 38,000  Level Kansas City Center
07:44AM 39.1783 -93.3075 254° West 413 475 38,000  Level Kansas City Center
07:45AM 39.1503 -93.4386 255° West 413 475 38,000  Level Kansas City Center
07:46AM 39.1136 -93.6103 255° West 413 475 38,000  Level Kansas City Center
07:47AM 39.0797 -93.7533 253° West 414 476 38,000  Level Kansas City Center
07:48AM 39.0481 -93.8972 254° West 415 478 38,000  Level Kansas City Center
07:50AM 39.0153 -94.0397 254° West 417 480 38,000  Level Kansas City Center
07:51AM 38.9817 -94.1839 253° West 420 483 38,000  Level Kansas City Center
07:52AM 38.9492 -94.3231 253° West 411 473 38,000  Level Kansas City Center
07:53AM 38.9172 -94.4619 254° West 410 472 38,000  Level Kansas City Center
07:54AM 38.8850 -94.6017 254° West 410 472 38,000  Level Kansas City Center
07:55AM 38.8514 -94.7406 253° West 409 471 38,000  Level Kansas City Center
07:56AM 38.8192 -94.8792 253° West 408 470 38,000  Level Kansas City Center
07:57AM 38.7856 -95.0167 253° West 406 467 38,000  Level Kansas City Center
07:58AM 38.7533 -95.1553 253° West 405 466 38,000  Level Kansas City Center
07:59AM 38.7203 -95.2922 253° West 404 465 38,000  Level Kansas City Center
08:00AM 38.6872 -95.4269 253° West 401 461 38,000 -720 Level Kansas City Center
08:01AM 38.6558 -95.5581 253° West 388 447 36,600 -1,620 Descending Kansas City Center
08:02AM 38.6175 -95.7094 252° West 377 434 34,800 -1,620 Descending Kansas City Center
08:03AM 38.5853 -95.8458 253° West 400 460 33,400 -1,440 Descending Kansas City Center
08:04AM 38.5508 -95.9856 253° West 408 470 31,900 -1,500 Descending Kansas City Center
08:05AM 38.5153 -96.1300 253° West 420 483 30,400 -1,500 Descending Kansas City Center
08:06AM 38.4772 -96.2731 251° West 427 491 28,900 -1,680 Descending Kansas City Center
08:07AM 38.4394 -96.4206 252° West 433 498 27,100 -2,280 Descending Kansas City Center
08:08AM 38.3975 -96.5850 252° West 445 512 24,300 -2,640 Descending Kansas City Center
08:09AM 38.3564 -96.7475 252° West 436 502 21,600 -2,460 Descending Kansas City Center
08:09AM 38.3525 -96.7694 257° West 435 501 21,200 -2,280 Descending Kansas City Center
08:10AM 38.3236 -96.8736 251° West 427 491 19,400 -2,760 Descending Kansas City Center
08:10AM 38.3131 -96.9200 254° West 421 484 18,400 -3,000 Descending Kansas City Center
08:11AM 38.2883 -97.0097 251° West 410 472 16,400 -2,940 Descending Kansas City Center
08:11AM 38.2783 -97.0539 254° West 392 451 15,500 -3,000 Descending Kansas City Center
08:12AM 38.2553 -97.1381 251° West 389 448 13,400 -2,940 Descending Kansas City Center
08:12AM 38.2444 -97.1792 251° West 379 436 12,500 -3,000 Descending Kansas City Center
08:13AM 38.2225 -97.2633 252° West 379 436 10,400 -3,000 Descending Kansas City Center
08:13AM 38.2122 -97.3014 251° West 362 417 9,500 -2,400 Descending Kansas City Center
08:14AM 38.1933 -97.3736 252° West 336 387 8,000 -2,100 Descending Kansas City Center
08:14AM 38.1847 -97.4069 252° West 299 344 7,400 -2,280 Descending Kansas City Center
08:15AM 38.1644 -97.4853 252° West 287 330 5,700 -1,980 Descending Kansas City Center
08:15AM 38.1600 -97.4986 247° West 274 315 5,400 -1,380 Descending Kansas City Center
08:16AM 38.1464 -97.5964 260° West 261 300 4,000 -840 Descending Kansas City Center
08:17AM 38.1531 -97.6678 277° West 265 305 4,000  Level Kansas City Center
08:17AM 38.1553 -97.6908 277° West 266 306 4,000  Level Kansas City Center
08:18AM 38.1600 -97.7544 275° West 248 285 4,000 -60 Level Kansas City Center
08:19AM 38.1856 -97.8197 296° West 215 247 3,900  Descending Kansas City Center
08:20AM 38.2206 -97.8797 307° West 212 244 4,000 -180 Climbing Kansas City Center
08:22AM 38.1625 -97.9536 167° South 195 224 3,500 -240 Descending Kansas City Center
08:22AM 38.1506 -97.9522 175° South 194 223 3,500 -780 Level Kansas City Center
08:23AM 38.1197 -97.9217 142° Southeast 183 211 2,700 -840 Descending Kansas City Center
08:24AM 38.0931 -97.8925 139° Southeast 147 169 2,000 -660 Descending Kansas City Center
08:25AM 38.0686 -97.8644 138° Southeast 130 150 1,400 -300 Descending Kansas City Center
08:26AM 38.0628 -97.8617 159° South 48 55 1,500  Climbing Kansas City Center
08:27AM 38.0608 -97.8642 225° Southwest 35 40 1,500  Level Kansas City Center